Time;durP1;ratioP1;P1;durP2;ratioP2;P2;SDS_P1;SDS_P2;PMS_P1;PMS_P2;Temp;Humidity;BMP_temperature;BMP_pressure;BME280_temperature;BME280_humidity;BME280_pressure;Samples;Min_cycle;Max_cycle;Signal;HPM_P1;HPM_P2
2022/06/08 00:00:15;;;;;;;12.67;4.30;;;;;;;-143.84;92.24;45070.00;5031347;28;20450;-70
2022/06/08 00:02:44;;;;;;;7.73;4.00;;;;;;;-143.84;92.20;45079.53;5031278;28;20936;-70
2022/06/08 00:05:12;;;;;;;5.73;3.23;;;;;;;-143.84;92.41;45064.31;5031239;28;20439;-70
2022/06/08 00:07:39;;;;;;;7.53;3.77;;;;;;;-143.84;92.63;45094.78;5031206;28;20492;-70
2022/06/08 00:10:08;;;;;;;9.90;3.60;;;;;;;-143.84;92.60;45066.22;5030982;28;20446;-70
2022/06/08 00:12:36;;;;;;;9.90;3.50;;;;;;;-143.84;92.68;45079.53;5035417;28;20620;-70
2022/06/08 00:15:05;;;;;;;8.20;3.47;;;;;;;-143.84;92.51;45079.53;5030818;28;21240;-70
2022/06/08 00:17:32;;;;;;;13.97;3.10;;;;;;;-143.84;92.49;45085.25;5030170;28;20435;-70
2022/06/08 00:19:59;;;;;;;10.07;3.40;;;;;;;-143.84;92.42;45077.63;5030918;28;20443;-70
2022/06/08 00:22:26;;;;;;;4.00;3.70;;;;;;;-143.84;92.13;45070.00;5031050;28;20490;-70
2022/06/08 00:24:54;;;;;;;5.80;3.03;;;;;;;-143.84;92.18;45079.53;5030504;28;20556;-70
2022/06/08 00:27:21;;;;;;;5.60;3.90;;;;;;;-143.84;91.95;45081.44;5030789;28;20574;-70
2022/06/08 00:29:48;;;;;;;10.63;3.87;;;;;;;-143.84;91.71;45079.53;5030206;28;20439;-70
2022/06/08 00:32:17;;;;;;;6.00;4.00;;;;;;;-143.84;91.73;45104.28;5030625;28;20446;-70
2022/06/08 00:34:45;;;;;;;5.10;3.63;;;;;;;-143.84;91.52;45085.25;5030545;28;20451;-70
2022/06/08 00:37:12;;;;;;;6.40;3.73;;;;;;;-143.84;91.64;45068.13;5030498;28;20455;-70
2022/06/08 00:39:39;;;;;;;3.67;3.47;;;;;;;-143.84;91.62;45098.56;5030368;28;20999;-70
2022/06/08 00:42:10;;;;;;;7.20;3.17;;;;;;;-143.84;91.67;45075.72;5030049;28;20474;-70
2022/06/08 00:44:43;;;;;;;4.03;3.63;;;;;;;-143.84;91.77;45119.53;5030553;28;20466;-70
2022/06/08 00:47:13;;;;;;;5.07;3.20;;;;;;;-143.84;91.83;45098.56;5030701;28;21008;-70
2022/06/08 00:49:49;;;;;;;6.10;3.83;;;;;;;-143.84;91.83;45104.28;5030189;28;20451;-70
2022/06/08 00:52:16;;;;;;;7.43;3.50;;;;;;;-143.84;91.95;45104.28;5030238;28;20458;-70
2022/06/08 00:54:47;;;;;;;5.67;3.50;;;;;;;-143.84;91.75;45090.97;5029912;28;20443;-70
2022/06/08 00:57:18;;;;;;;9.53;3.33;;;;;;;-143.84;91.77;45100.47;5030119;28;20446;-70
2022/06/08 00:59:49;;;;;;;7.47;4.00;;;;;;;-143.84;91.89;45068.13;5030537;28;20508;-70
2022/06/08 01:02:18;;;;;;;9.90;4.60;;;;;;;-143.84;92.05;45106.19;5029987;28;20532;-70
2022/06/08 01:04:46;;;;;;;5.90;3.37;;;;;;;-143.84;92.30;45083.34;5030331;28;20442;-70
2022/06/08 01:07:20;;;;;;;5.63;3.90;;;;;;;-143.84;92.63;45092.88;5046702;28;20465;-70
2022/06/08 01:09:49;;;;;;;8.37;4.33;;;;;;;-143.84;92.72;45098.56;5049333;28;20449;-70
2022/06/08 01:12:20;;;;;;;7.10;3.57;;;;;;;-143.84;92.86;45102.38;5049354;28;20453;-70
2022/06/08 01:14:49;;;;;;;4.60;4.20;;;;;;;-143.84;93.02;45073.81;5049355;28;20454;-70
2022/06/08 01:17:18;;;;;;;10.20;3.77;;;;;;;-143.84;93.33;45066.22;5049444;28;20445;-70
2022/06/08 01:19:50;;;;;;;9.90;3.93;;;;;;;-143.84;93.69;45075.72;5049245;28;20442;-70
2022/06/08 01:22:20;;;;;;;4.40;4.00;;;;;;;-143.84;93.65;45089.06;5048986;28;20489;-70
2022/06/08 01:24:51;;;;;;;6.63;4.23;;;;;;;-143.84;93.97;45056.69;5049212;28;20528;-69
2022/06/08 01:27:32;;;;;;;8.70;4.40;;;;;;;-143.84;94.17;45087.16;5049540;28;20512;-69
2022/06/08 01:30:16;;;;;;;3.60;3.30;;;;;;;-143.84;94.56;45081.44;5049423;28;20465;-70
2022/06/08 01:33:23;;;;;;;6.17;4.50;;;;;;;-143.84;94.51;45087.16;5047880;28;21000;-70
2022/06/08 01:36:04;;;;;;;14.83;3.70;;;;;;;-143.84;94.39;45104.28;5049232;28;20442;-70
2022/06/08 01:38:38;;;;;;;4.83;3.50;;;;;;;-143.84;94.35;45102.38;5048980;28;20483;-70
2022/06/08 01:41:28;;;;;;;16.93;3.83;;;;;;;-143.84;94.31;45090.97;5048625;28;20453;-70
2022/06/08 01:44:06;;;;;;;3.50;3.13;;;;;;;-143.84;94.17;45102.38;5049119;28;20434;-70
2022/06/08 01:46:41;;;;;;;7.90;3.87;;;;;;;-143.84;93.61;45064.31;5049197;28;20502;-70
2022/06/08 01:49:22;;;;;;;6.93;4.00;;;;;;;-143.84;93.42;45066.22;5049089;28;20449;-70
2022/06/08 01:52:02;;;;;;;10.97;4.87;;;;;;;-143.84;93.37;45079.53;5048830;28;20519;-70
2022/06/08 01:54:48;;;;;;;9.63;4.27;;;;;;;-143.84;93.24;45083.34;5042803;28;20540;-70
2022/06/08 01:57:43;;;;;;;6.57;3.90;;;;;;;-143.84;92.87;45106.19;5028999;28;21161;-70
2022/06/08 02:00:15;;;;;;;10.17;3.57;;;;;;;-143.84;92.92;45087.16;5028993;28;20823;-70
2022/06/08 02:02:54;;;;;;;11.30;4.03;;;;;;;-143.84;92.84;45094.78;5028889;28;20573;-70
2022/06/08 02:05:29;;;;;;;7.77;4.20;;;;;;;-143.84;92.81;45064.31;5029040;28;20438;-70
2022/06/08 02:08:02;;;;;;;4.23;3.77;;;;;;;-143.84;93.14;45094.78;5029316;28;20439;-70
2022/06/08 02:10:41;;;;;;;3.60;3.30;;;;;;;-143.84;92.92;45094.78;5029054;28;20468;-70
2022/06/08 02:13:17;;;;;;;8.83;4.67;;;;;;;-143.84;92.75;45125.22;5028883;28;20963;-69
2022/06/08 02:15:48;;;;;;;10.83;2.97;;;;;;;-143.84;92.96;45096.66;5028940;28;20477;-70
2022/06/08 02:18:21;;;;;;;10.13;4.30;;;;;;;-143.84;93.14;45123.34;5029106;28;20439;-70
2022/06/08 02:20:54;;;;;;;6.40;3.93;;;;;;;-143.84;93.29;45096.66;5028814;28;20462;-70
2022/06/08 02:23:26;;;;;;;4.00;3.80;;;;;;;-143.84;93.24;45079.53;5028776;28;20999;-70
2022/06/08 02:25:59;;;;;;;8.87;3.17;;;;;;;-143.84;93.37;45083.34;5028592;28;21000;-70
2022/06/08 02:28:34;;;;;;;10.20;4.47;;;;;;;-143.84;93.42;45060.50;5028529;28;21026;-70
2022/06/08 02:31:08;;;;;;;5.10;3.57;;;;;;;-143.84;93.69;45066.22;5028871;28;20871;-70
2022/06/08 02:36:30;;;;;;;8.93;4.07;;;;;;;-143.84;93.34;45104.28;5028654;28;20512;-70
2022/06/08 02:39:01;;;;;;;11.20;3.87;;;;;;;-143.84;93.59;45083.34;5028886;28;20804;-70
2022/06/08 02:41:32;;;;;;;6.20;3.47;;;;;;;-143.84;93.68;45092.88;5028766;28;20453;-70
2022/06/08 02:44:03;;;;;;;6.17;4.00;;;;;;;-143.84;93.80;45068.13;5028536;28;20454;-70
2022/06/08 02:46:36;;;;;;;7.17;4.00;;;;;;;-143.84;93.95;45081.44;5028925;28;20438;-70
2022/06/08 02:49:09;;;;;;;10.93;3.93;;;;;;;-143.84;94.11;45083.34;5028590;28;20442;-70
2022/06/08 02:51:37;;;;;;;6.33;3.37;;;;;;;-143.84;93.94;45075.72;5028984;28;20466;-70
2022/06/08 02:54:07;;;;;;;12.10;4.07;;;;;;;-143.84;94.07;45064.31;5030184;28;20878;-70
2022/06/08 02:56:46;;;;;;;10.03;3.80;;;;;;;-143.84;93.97;45125.22;5032335;28;20447;-70
2022/06/08 02:59:21;;;;;;;6.83;3.77;;;;;;;-143.84;94.05;45081.44;5032468;28;20446;-70
2022/06/08 03:02:01;;;;;;;5.90;3.77;;;;;;;-143.84;94.18;45090.97;5032493;28;20442;-69
2022/06/08 03:04:32;;;;;;;8.00;3.70;;;;;;;-143.84;94.50;45077.63;5031518;28;20496;-70
2022/06/08 03:07:04;;;;;;;13.20;4.07;;;;;;;-143.84;94.85;45066.22;5031285;28;20457;-70
2022/06/08 03:09:34;;;;;;;10.07;4.23;;;;;;;-143.84;95.06;45083.34;5031931;28;20443;-70
2022/06/08 03:12:10;;;;;;;8.07;3.70;;;;;;;-143.84;95.16;45081.44;5031628;28;20442;-70
2022/06/08 03:14:38;;;;;;;8.00;4.47;;;;;;;-143.84;95.10;45083.34;5013509;28;20499;-69
2022/06/08 03:17:08;;;;;;;14.67;3.90;;;;;;;-143.84;95.31;45081.44;5012412;28;20440;-70
2022/06/08 03:19:38;;;;;;;10.00;4.47;;;;;;;-143.84;95.33;45077.63;5027364;28;21006;-69
2022/06/08 03:22:06;;;;;;;10.30;5.60;;;;;;;-143.84;95.10;45075.72;5031839;28;20462;-70
2022/06/08 03:24:35;;;;;;;10.50;4.13;;;;;;;-143.84;94.85;45052.88;5031709;28;20908;-70
2022/06/08 03:27:08;;;;;;;4.53;4.00;;;;;;;-143.84;95.04;45087.16;5031823;28;20434;-70
2022/06/08 03:29:35;;;;;;;7.10;4.30;;;;;;;-143.84;94.86;45098.56;5031813;28;20438;-69
2022/06/08 03:32:03;;;;;;;5.03;4.63;;;;;;;-143.84;94.79;45090.97;5031875;28;20442;-70
2022/06/08 03:34:30;;;;;;;5.67;4.00;;;;;;;-143.84;94.61;45052.88;5031742;28;20875;-70
2022/06/08 03:36:57;;;;;;;5.60;3.57;;;;;;;-143.84;94.55;45075.72;5031734;28;20427;-70
2022/06/08 03:39:24;;;;;;;10.93;4.00;;;;;;;-143.84;94.14;45077.63;5031779;28;20500;-70
2022/06/08 03:41:51;;;;;;;12.83;4.90;;;;;;;-143.84;93.56;45096.66;5030901;28;20451;-70
2022/06/08 03:44:20;;;;;;;5.50;4.20;;;;;;;-143.84;93.40;45070.00;5031394;28;20447;-70
2022/06/08 03:46:53;;;;;;;7.93;4.10;;;;;;;-143.84;92.70;45070.00;5031581;28;20451;-70
2022/06/08 03:49:22;;;;;;;5.67;4.13;;;;;;;-143.84;92.17;45083.34;5031514;28;20450;-71
2022/06/08 03:51:51;;;;;;;5.13;3.80;;;;;;;-143.84;91.93;45100.47;5031339;28;20454;-68
2022/06/08 03:54:22;;;;;;;5.83;3.80;;;;;;;-143.84;91.45;45083.34;5030578;28;20887;-68
2022/06/08 03:56:53;;;;;;;8.50;4.10;;;;;;;-143.84;90.92;45089.06;5030289;28;21037;-68
2022/06/08 03:59:22;;;;;;;3.30;3.00;;;;;;;-143.84;90.43;45100.47;5031019;28;20434;-70
2022/06/08 04:01:50;;;;;;;6.20;3.70;;;;;;;-143.84;89.98;45100.47;5030892;28;20457;-70
2022/06/08 04:04:17;;;;;;;10.40;3.93;;;;;;;-143.84;89.21;45068.13;5030915;28;20886;-70
2022/06/08 04:06:45;;;;;;;3.20;3.00;;;;;;;-143.84;88.69;45110.00;5030321;28;20875;-70
2022/06/08 04:09:13;;;;;;;5.83;3.70;;;;;;;-143.84;88.36;45096.66;5030910;28;20447;-70
2022/06/08 04:11:40;;;;;;;3.80;3.10;;;;;;;-143.84;88.04;45092.88;5030853;28;20439;-70
2022/06/08 04:14:07;;;;;;;3.50;2.67;;;;;;;-143.84;87.65;45098.56;5030898;28;20501;-70
2022/06/08 04:16:36;;;;;;;4.90;3.30;;;;;;;-143.84;88.19;45098.56;5030240;28;20446;-70
2022/06/08 04:19:03;;;;;;;8.23;3.97;;;;;;;-143.84;88.70;45064.31;5030583;28;20955;-70
2022/06/08 04:21:30;;;;;;;7.60;3.70;;;;;;;-143.84;89.05;45087.16;5030299;28;20469;-70
2022/06/08 04:23:58;;;;;;;6.13;3.63;;;;;;;-143.84;88.66;45102.38;5030223;28;20557;-70
2022/06/08 04:26:25;;;;;;;6.90;4.10;;;;;;;-143.84;88.77;45098.56;5029526;28;20494;-70
2022/06/08 04:28:52;;;;;;;7.17;3.77;;;;;;;-143.84;88.76;45079.53;5029153;28;20450;-70
2022/06/08 04:31:20;;;;;;;4.43;3.70;;;;;;;-143.84;89.07;45087.16;5029360;28;20435;-70
2022/06/08 04:33:49;;;;;;;6.27;3.80;;;;;;;-143.84;89.00;45075.72;5029295;28;20442;-70
2022/06/08 04:36:18;;;;;;;5.73;3.80;;;;;;;-143.84;88.57;45060.50;5029619;28;20470;-70
2022/06/08 04:38:45;;;;;;;6.03;4.30;;;;;;;-143.84;88.29;45106.19;5029969;28;20438;-70
2022/06/08 04:41:12;;;;;;;12.63;4.40;;;;;;;-143.84;88.52;45068.13;5030833;28;20524;-70
2022/06/08 04:43:41;;;;;;;8.63;3.53;;;;;;;-143.84;88.12;45064.31;5030161;28;20475;-70
2022/06/08 04:46:14;;;;;;;4.00;3.60;;;;;;;-143.84;87.41;45068.13;5030525;28;20442;-70
2022/06/08 04:48:43;;;;;;;7.20;3.50;;;;;;;-143.84;87.90;45071.91;5030396;28;20435;-71
2022/06/08 04:51:13;;;;;;;8.10;4.00;;;;;;;-143.84;88.55;45077.63;5030373;28;20959;-70
2022/06/08 04:53:41;;;;;;;3.40;3.10;;;;;;;-143.84;88.15;45060.50;5030151;28;20455;-70
2022/06/08 04:56:08;;;;;;;3.20;3.00;;;;;;;-143.84;87.82;45104.28;5030409;28;20439;-71
2022/06/08 04:58:36;;;;;;;3.53;3.33;;;;;;;-143.84;87.71;45081.44;5030187;28;20451;-70
2022/06/08 05:01:04;;;;;;;13.40;3.20;;;;;;;-143.84;87.01;45104.28;5030254;28;20446;-71
2022/06/08 05:03:32;;;;;;;5.40;2.90;;;;;;;-143.84;86.45;45089.06;5012519;28;20507;-70
2022/06/08 05:06:02;;;;;;;4.90;3.20;;;;;;;-143.84;86.51;45068.13;5030020;28;20445;-70
2022/06/08 05:08:31;;;;;;;5.73;3.80;;;;;;;-143.84;86.82;45052.88;5030091;28;20520;-70
2022/06/08 05:10:58;;;;;;;3.10;2.83;;;;;;;-143.84;86.56;45041.44;5030070;28;20794;-70
2022/06/08 05:13:26;;;;;;;8.13;2.90;;;;;;;-143.84;86.42;45068.13;5030085;28;20524;-70
2022/06/08 05:15:53;;;;;;;3.47;3.17;;;;;;;-143.84;85.58;45089.06;5030053;28;20845;-70
2022/06/08 05:18:22;;;;;;;5.20;2.80;;;;;;;-143.84;85.24;45068.13;5029774;28;20442;-70
2022/06/08 05:20:50;;;;;;;3.83;3.17;;;;;;;-143.84;85.13;45071.91;5029871;28;20451;-70
2022/06/08 05:23:19;;;;;;;7.40;3.30;;;;;;;-143.84;85.31;45094.78;5029721;28;20482;-70
2022/06/08 05:25:48;;;;;;;9.83;3.00;;;;;;;-143.84;85.07;45108.09;5029747;28;20541;-70
2022/06/08 05:28:15;;;;;;;6.47;2.87;;;;;;;-143.84;85.36;45052.88;5029814;28;20454;-70
2022/06/08 05:30:43;;;;;;;4.50;2.70;;;;;;;-143.84;84.86;45087.16;5029935;28;20438;-70
2022/06/08 05:33:11;;;;;;;5.63;3.00;;;;;;;-143.84;84.23;45054.78;5029577;28;20430;-70
2022/06/08 05:35:39;;;;;;;3.30;2.43;;;;;;;-143.84;84.60;45068.13;5029419;28;20478;-70
2022/06/08 05:38:08;;;;;;;4.27;3.40;;;;;;;-143.84;84.89;45071.91;5029539;28;20509;-70
2022/06/08 05:40:37;;;;;;;4.80;3.00;;;;;;;-143.84;85.25;45079.53;5029516;28;20446;-70
2022/06/08 05:43:07;;;;;;;9.00;4.53;;;;;;;-143.84;85.15;45094.78;5029654;28;20482;-70
2022/06/08 05:45:36;;;;;;;5.40;3.20;;;;;;;-143.84;84.94;45070.00;5029447;28;20447;-70
2022/06/08 05:48:04;;;;;;;7.23;3.40;;;;;;;-143.84;84.70;45096.66;5029405;28;20500;-70
2022/06/08 05:50:32;;;;;;;6.37;3.30;;;;;;;-143.84;84.51;45106.19;5029213;28;20443;-70
2022/06/08 05:52:59;;;;;;;9.63;3.17;;;;;;;-143.84;85.18;45060.50;5033956;28;20450;-70
2022/06/08 05:55:28;;;;;;;8.93;3.20;;;;;;;-143.84;84.49;45037.66;5029402;28;20517;-70
2022/06/08 05:57:55;;;;;;;2.73;2.40;;;;;;;-143.84;79.33;45030.03;5029275;28;20446;-67
2022/06/08 06:00:26;;;;;;;10.97;2.23;;;;;;;-143.84;78.04;45092.88;5029069;28;20945;-69
2022/06/08 06:02:54;;;;;;;11.60;2.70;;;;;;;-143.84;76.34;45049.06;5029350;28;20526;-70
2022/06/08 06:05:24;;;;;;;5.10;2.27;;;;;;;-143.84;73.47;45039.53;5029261;28;20466;-68
2022/06/08 06:07:51;;;;;;;5.67;2.60;;;;;;;-143.84;70.80;45077.63;5029015;28;20497;-71
2022/06/08 06:10:20;;;;;;;9.03;2.53;;;;;;;-143.84;69.53;45071.91;5029100;28;20445;-68
2022/06/08 06:12:48;;;;;;;2.27;2.17;;;;;;;-143.84;69.91;45020.50;5029089;28;21031;-68
2022/06/08 06:15:16;;;;;;;8.93;2.30;;;;;;;-143.84;70.03;45064.31;5029165;28;20438;-68
2022/06/08 06:17:44;;;;;;;4.40;2.63;;;;;;;-143.84;67.28;45022.41;5028861;28;20504;-70
2022/06/08 06:20:12;;;;;;;2.40;2.07;;;;;;;-143.84;64.68;45045.25;5029182;28;20589;-69
2022/06/08 06:22:39;;;;;;;2.73;2.13;;;;;;;-143.84;63.45;45037.66;5029064;28;20434;-70
2022/06/08 06:25:09;;;;;;;3.93;2.03;;;;;;;-143.84;63.70;45041.44;5029042;28;20489;-68
2022/06/08 06:27:37;;;;;;;2.33;2.13;;;;;;;-143.84;63.41;45018.59;5028999;28;20438;-68
2022/06/08 06:30:05;;;;;;;3.50;1.73;;;;;;;-143.84;62.83;45037.66;5032196;28;20434;-70
2022/06/08 06:32:34;;;;;;;2.70;2.10;;;;;;;-143.84;62.71;45003.38;5033246;28;20516;-70
2022/06/08 06:35:05;;;;;;;10.20;2.50;;;;;;;-143.84;63.91;45049.06;5033193;28;20527;-70
2022/06/08 06:37:32;;;;;;;2.90;1.97;;;;;;;-143.84;65.40;45016.69;5033001;28;20474;-67
2022/06/08 06:39:59;;;;;;;2.30;2.10;;;;;;;-143.84;64.50;45035.75;5032999;28;20426;-70
2022/06/08 06:42:29;;;;;;;2.40;2.20;;;;;;;-143.84;64.69;45064.31;5045376;28;20457;-68
2022/06/08 06:44:56;;;;;;;8.13;2.70;;;;;;;-143.84;65.42;45035.75;5052753;28;20562;-68
2022/06/08 06:47:23;;;;;;;2.77;2.23;;;;;;;-143.84;66.04;45041.44;5052583;28;20444;-67
2022/06/08 06:49:50;;;;;;;10.97;2.50;;;;;;;-143.84;65.72;45054.78;5052173;28;20442;-70
2022/06/08 06:52:19;;;;;;;3.23;2.00;;;;;;;-143.84;66.58;45033.84;5052370;28;20525;-70
2022/06/08 06:54:47;;;;;;;2.97;2.73;;;;;;;-143.84;67.32;45049.06;5052573;28;20452;-70
2022/06/08 06:57:15;;;;;;;3.63;2.60;;;;;;;-143.84;68.22;45037.66;5051998;28;20525;-70
2022/06/08 06:59:43;;;;;;;3.20;2.20;;;;;;;-143.84;68.35;45049.06;5052490;28;20452;-70
2022/06/08 07:02:13;;;;;;;3.97;2.50;;;;;;;-143.84;68.92;45018.59;5051994;28;20499;-70
2022/06/08 07:04:40;;;;;;;6.80;2.40;;;;;;;-143.84;67.91;45033.84;5052237;28;20501;-70
2022/06/08 07:07:07;;;;;;;2.37;2.27;;;;;;;-143.84;67.48;45062.41;5052338;28;20441;-68
2022/06/08 07:09:36;;;;;;;2.70;2.50;;;;;;;-143.84;66.88;45047.16;5052281;28;20438;-67
2022/06/08 07:12:04;;;;;;;2.87;2.37;;;;;;;-143.84;67.67;45030.03;5052254;28;20441;-69
2022/06/08 07:14:32;;;;;;;6.10;2.60;;;;;;;-143.84;66.77;45045.25;5052197;28;21037;-70
2022/06/08 07:17:00;;;;;;;3.83;2.60;;;;;;;-143.84;66.33;45041.44;5051953;28;20440;-70
2022/06/08 07:19:27;;;;;;;7.43;2.50;;;;;;;-143.84;66.04;45039.53;5050958;28;20449;-68
2022/06/08 07:21:54;;;;;;;5.80;2.97;;;;;;;-143.84;67.42;45039.53;5050855;28;20445;-70
2022/06/08 07:24:23;;;;;;;4.90;2.80;;;;;;;-143.84;66.44;45045.25;5051294;28;20493;-70
2022/06/08 07:26:52;;;;;;;7.50;2.70;;;;;;;-143.84;67.12;45037.66;5051762;28;20499;-70
2022/06/08 07:29:19;;;;;;;3.93;3.00;;;;;;;-143.84;67.03;45052.88;5051239;28;20474;-70
2022/06/08 07:31:47;;;;;;;2.90;2.70;;;;;;;-143.84;67.69;45049.06;5038993;28;20503;-70
2022/06/08 07:34:15;;;;;;;3.33;2.67;;;;;;;-143.84;67.51;45028.13;5046029;28;20465;-70
2022/06/08 07:36:44;;;;;;;3.03;2.80;;;;;;;-143.84;67.50;45022.41;5038703;28;20890;-70
2022/06/08 07:39:13;;;;;;;7.13;2.90;;;;;;;-143.84;66.84;45037.66;5044679;28;20493;-68
2022/06/08 07:41:42;;;;;;;4.40;2.90;;;;;;;-143.84;67.43;45035.75;5034764;28;20486;-67
2022/06/08 07:44:11;;;;;;;2.93;2.40;;;;;;;-143.84;68.26;45045.25;5032992;28;21372;-68
2022/06/08 07:46:38;;;;;;;3.87;2.73;;;;;;;-143.84;68.14;45050.97;5031684;28;20450;-67
2022/06/08 07:51:53;;;;;;;3.90;3.60;;;;;;;-143.84;69.50;45039.53;5031763;28;20433;-68
2022/06/08 07:54:23;;;;;;;4.77;3.03;;;;;;;-143.84;70.30;45045.25;5031567;28;20442;-68
2022/06/08 07:56:51;;;;;;;3.33;2.33;;;;;;;-143.84;70.94;45060.50;5031567;28;20529;-70
2022/06/08 07:59:22;;;;;;;10.37;3.37;;;;;;;-143.84;71.12;45043.34;5031533;28;20439;-70
2022/06/08 08:01:49;;;;;;;3.53;3.23;;;;;;;-143.84;70.59;45054.78;5031537;28;20450;-67
2022/06/08 08:04:17;;;;;;;7.57;3.07;;;;;;;-143.84;71.37;45039.53;5031364;28;20478;-68
2022/06/08 08:06:44;;;;;;;3.07;2.60;;;;;;;-143.84;72.08;45039.53;5031738;28;20451;-68
2022/06/08 08:09:17;;;;;;;5.30;2.93;;;;;;;-143.84;72.64;45037.66;5031300;28;20464;-67
2022/06/08 08:11:45;;;;;;;6.60;2.87;;;;;;;-143.84;71.48;45033.84;5031251;28;20522;-68
2022/06/08 08:14:12;;;;;;;4.80;2.10;;;;;;;-143.84;70.97;45066.22;5031273;28;20447;-70
2022/06/08 08:16:42;;;;;;;3.10;2.90;;;;;;;-143.84;71.51;45071.91;5031245;28;20442;-70
2022/06/08 08:19:10;;;;;;;4.13;2.60;;;;;;;-143.84;71.45;45030.03;5031322;28;20434;-70
2022/06/08 08:21:38;;;;;;;4.50;2.53;;;;;;;-143.84;71.71;45052.88;5031427;28;20447;-67
2022/06/08 08:24:06;;;;;;;9.33;3.10;;;;;;;-143.84;72.33;45035.75;5030905;28;20482;-69
2022/06/08 08:26:34;;;;;;;6.37;3.20;;;;;;;-143.84;75.34;45045.25;5030386;28;20487;-69
2022/06/08 08:29:01;;;;;;;4.87;3.20;;;;;;;-143.84;75.32;45028.13;5030556;28;20451;-70
2022/06/08 08:31:28;;;;;;;4.13;3.00;;;;;;;-143.84;75.81;45049.06;5030882;28;20450;-70
2022/06/08 08:33:57;;;;;;;2.67;2.47;;;;;;;-143.84;77.66;45045.25;5030824;28;20454;-68
2022/06/08 08:36:25;;;;;;;4.53;2.33;;;;;;;-143.84;77.45;45052.88;5030788;28;20446;-69
2022/06/08 08:38:52;;;;;;;5.60;3.20;;;;;;;-143.84;78.08;45047.16;5030533;28;20442;-69
2022/06/08 08:44:12;;;;;;;7.30;3.60;;;;;;;-143.84;77.98;45047.16;5030555;28;21193;-69
2022/06/08 08:46:49;;;;;;;2.77;2.53;;;;;;;-143.84;78.74;45037.66;5030736;28;20508;-69
2022/06/08 08:49:21;;;;;;;4.47;2.93;;;;;;;-143.84;79.21;45039.53;5030486;28;20446;-69
2022/06/08 08:51:53;;;;;;;5.50;3.53;;;;;;;-143.84;79.96;45081.44;5029632;28;20516;-69
2022/06/08 08:54:26;;;;;;;12.77;4.20;;;;;;;-143.84;79.64;45054.78;5030239;28;20986;-69
2022/06/08 08:56:59;;;;;;;21.63;3.60;;;;;;;-143.84;78.05;45064.31;5030439;28;20530;-69
2022/06/08 08:59:31;;;;;;;7.43;3.33;;;;;;;-143.84;79.75;45049.06;5030194;28;20446;-69
2022/06/08 09:02:00;;;;;;;6.57;3.57;;;;;;;-143.84;79.50;45045.25;5030253;28;20449;-69
2022/06/08 09:04:33;;;;;;;5.00;3.10;;;;;;;-143.84;79.65;45052.88;5030274;28;20536;-70
2022/06/08 09:07:06;;;;;;;5.20;3.30;;;;;;;-143.84;80.36;45047.16;5030036;28;20442;-69
2022/06/08 09:09:34;;;;;;;5.20;3.00;;;;;;;-143.84;81.21;45033.84;5030250;28;20438;-69
2022/06/08 09:12:01;;;;;;;4.20;3.63;;;;;;;-143.84;82.04;45043.34;5029961;28;20442;-69
2022/06/08 09:14:48;;;;;;;7.80;3.10;;;;;;;-143.84;82.49;45066.22;5033256;28;20461;-69
2022/06/08 09:17:18;;;;;;;9.57;3.60;;;;;;;-143.84;82.19;45079.53;5030092;28;20489;-69
2022/06/08 09:19:49;;;;;;;4.47;3.00;;;;;;;-143.84;82.29;45068.13;5029741;28;20450;-69
2022/06/08 09:22:27;;;;;;;3.90;2.70;;;;;;;-143.84;82.64;45071.91;5029778;28;20818;-70
2022/06/08 09:24:58;;;;;;;6.57;2.90;;;;;;;-143.84;84.07;45031.94;5029866;28;20490;-70
2022/06/08 09:27:27;;;;;;;10.43;3.83;;;;;;;-143.84;83.91;45052.88;5029651;28;20530;-69
2022/06/08 09:30:11;;;;;;;7.73;3.23;;;;;;;-143.84;83.60;45098.56;5029828;28;20443;-69
2022/06/08 09:32:44;;;;;;;15.07;3.97;;;;;;;-143.84;82.58;45087.16;5029402;28;20971;-69
2022/06/08 09:35:24;;;;;;;7.60;3.87;;;;;;;-143.84;82.85;45081.44;5029776;28;20511;-69
2022/06/08 09:37:53;;;;;;;16.33;3.30;;;;;;;-143.84;82.79;45102.38;5029965;28;20440;-69
2022/06/08 09:40:38;;;;;;;6.80;3.43;;;;;;;-143.84;83.31;45070.00;5029521;28;20587;-69
2022/06/08 09:43:25;;;;;;;11.00;3.53;;;;;;;-143.84;83.31;45094.78;5042838;28;20454;-69
2022/06/08 09:45:55;;;;;;;7.30;2.90;;;;;;;-143.84;83.58;45096.66;5049746;28;20486;-70
2022/06/08 09:52:07;;;;;;;12.00;3.00;;;;;;;-143.84;85.31;45089.06;5049369;28;20429;-70
2022/06/08 09:54:45;;;;;;;3.70;3.37;;;;;;;-143.84;85.63;45087.16;4987774;28;20447;-69
2022/06/08 09:57:30;;;;;;;4.07;3.23;;;;;;;-143.84;86.10;45081.44;5039515;28;20939;-73
2022/06/08 10:00:28;;;;;;;7.90;4.00;;;;;;;-143.84;86.71;45077.63;5050400;28;20869;-73
2022/06/08 10:03:28;;;;;;;10.80;3.63;;;;;;;-143.84;85.34;45049.06;5044788;28;20836;-70
2022/06/08 10:06:03;;;;;;;8.00;2.90;;;;;;;-143.84;84.52;45077.63;5036055;28;20496;-70
2022/06/08 10:08:45;;;;;;;5.30;2.30;;;;;;;-143.84;83.58;45123.34;5050654;28;20434;-70
2022/06/08 10:11:39;;;;;;;8.47;2.30;;;;;;;-143.84;81.84;45066.22;5050535;28;20503;-70
2022/06/08 10:14:24;;;;;;;6.70;3.07;;;;;;;-143.84;80.71;45081.44;5050614;28;20445;-70
2022/06/08 10:16:56;;;;;;;2.43;2.20;;;;;;;-143.84;81.47;45085.25;5050606;28;20959;-70
2022/06/08 10:19:30;;;;;;;4.13;1.83;;;;;;;-143.84;80.71;45071.91;5050392;28;20438;-70
2022/06/08 10:22:01;;;;;;;4.90;1.93;;;;;;;-143.84;79.70;45070.00;5051767;28;20437;-69
2022/06/08 10:24:36;;;;;;;5.43;1.90;;;;;;;-143.84;77.13;45050.97;5050459;28;20521;-70
2022/06/08 10:27:11;;;;;;;5.23;2.40;;;;;;;-143.84;74.29;45073.81;5050602;28;20441;-70
2022/06/08 10:29:45;;;;;;;2.80;2.27;;;;;;;-143.84;76.52;45054.78;5050524;28;20473;-70
2022/06/08 10:32:17;;;;;;;1.93;1.83;;;;;;;-143.84;74.98;45079.53;5050256;28;20461;-70
2022/06/08 10:34:52;;;;;;;4.20;1.67;;;;;;;-143.84;76.00;45064.31;5050975;28;20515;-70
2022/06/08 10:37:24;;;;;;;2.33;2.00;;;;;;;-143.84;75.46;45081.44;5050807;28;20472;-70
2022/06/08 10:39:52;;;;;;;5.90;2.60;;;;;;;-143.84;76.40;45056.69;5050527;28;20470;-70
2022/06/08 10:42:42;;;;;;;2.53;2.33;;;;;;;-143.84;77.21;45049.06;5023426;28;20522;-70
2022/06/08 10:45:31;;;;;;;1.93;1.80;;;;;;;-143.84;75.92;45060.50;5010744;28;20506;-70
2022/06/08 10:48:01;;;;;;;2.27;2.00;;;;;;;-143.84;76.20;45054.78;5010827;28;20447;-70
2022/06/08 10:50:34;;;;;;;3.90;2.23;;;;;;;-143.84;76.68;45041.44;5012017;28;20961;-70
2022/06/08 10:56:46;;;;;;;4.37;2.07;;;;;;;-143.84;76.42;45049.06;5044522;28;20951;-70
2022/06/08 10:59:16;;;;;;;8.87;1.93;;;;;;;-143.84;75.55;45024.31;5048925;28;20842;-70
2022/06/08 11:01:56;;;;;;;2.33;2.20;;;;;;;-143.84;74.21;45049.06;5011732;28;20459;-70
2022/06/08 11:04:52;;;;;;;2.93;2.10;;;;;;;-143.84;73.19;45047.16;5010275;28;20446;-70
2022/06/08 11:07:22;;;;;;;6.93;2.00;;;;;;;-143.84;73.02;45081.44;5010593;28;20439;-70
2022/06/08 11:10:05;;;;;;;2.40;1.97;;;;;;;-143.84;74.98;45041.44;5010882;28;20968;-70
2022/06/08 11:12:55;;;;;;;2.60;2.40;;;;;;;-143.84;71.21;45045.25;5010713;28;20447;-70
2022/06/08 11:15:36;;;;;;;4.17;2.37;;;;;;;-143.84;70.90;45062.41;5012025;28;20465;-69
2022/06/08 11:18:13;;;;;;;1.80;1.70;;;;;;;-143.84;65.36;45037.66;5014171;28;20936;-69
2022/06/08 11:20:47;;;;;;;3.93;1.67;;;;;;;-143.84;67.22;45050.97;5026715;28;21341;-70
2022/06/08 11:23:19;;;;;;;10.73;2.53;;;;;;;-143.84;64.39;45049.06;5034099;28;20445;-70
2022/06/08 11:25:52;;;;;;;1.87;1.77;;;;;;;-143.84;62.46;45037.66;5033971;28;20551;-70
2022/06/08 11:28:32;;;;;;;2.43;1.57;;;;;;;-143.84;66.98;45056.69;5034180;28;20470;-70
2022/06/08 11:31:03;;;;;;;4.70;2.20;;;;;;;-143.84;65.10;45024.31;5033380;28;20454;-70
2022/06/08 11:33:59;;;;;;;1.93;1.60;;;;;;;-143.84;66.08;45033.84;5033957;28;20442;-70
2022/06/08 11:36:49;;;;;;;2.03;1.50;;;;;;;-143.84;66.71;45043.34;5032846;28;20944;-70
2022/06/08 11:39:24;;;;;;;1.93;1.83;;;;;;;-143.84;63.94;45035.75;5032343;28;20446;-68
2022/06/08 11:42:10;;;;;;;4.27;2.43;;;;;;;-143.84;66.65;45037.66;5033430;28;20446;-68
2022/06/08 11:44:42;;;;;;;1.90;1.80;;;;;;;-143.84;65.69;44995.75;5032822;28;20453;-69
2022/06/08 11:47:17;;;;;;;5.77;2.57;;;;;;;-143.84;64.82;45041.44;5033510;28;20917;-70
2022/06/08 11:49:47;;;;;;;8.33;2.10;;;;;;;-143.84;63.48;45016.69;5033755;28;20784;-69
2022/06/08 11:52:25;;;;;;;2.27;1.97;;;;;;;-143.84;64.42;45047.16;5033422;28;20478;-70